createdAt,value
2018-01-15T00:01:47.610Z,1.87
2018-01-15T00:04:18.455Z,2.30
2018-01-15T00:06:49.321Z,2.33
2018-01-15T00:09:20.146Z,2.10
2018-01-15T00:11:51.016Z,2.53
2018-01-15T00:14:21.878Z,2.40
2018-01-15T00:16:52.839Z,1.80
2018-01-15T00:19:23.654Z,1.90
2018-01-15T00:21:54.490Z,1.97
2018-01-15T00:24:25.332Z,2.03
2018-01-15T00:26:56.189Z,2.20
2018-01-15T00:29:27.030Z,2.53
2018-01-15T00:31:57.906Z,2.00
2018-01-15T00:34:28.744Z,2.43
2018-01-15T00:36:59.607Z,2.40
2018-01-15T00:39:30.680Z,2.63
2018-01-15T00:42:01.535Z,2.12
2018-01-15T00:44:32.391Z,2.47
2018-01-15T00:47:03.263Z,2.13
2018-01-15T00:49:34.144Z,2.70
2018-01-15T00:52:04.991Z,2.40
2018-01-15T00:54:35.850Z,2.00
2018-01-15T00:57:06.707Z,2.30
2018-01-15T00:59:37.553Z,2.60
2018-01-15T01:02:08.394Z,2.27
2018-01-15T01:04:39.258Z,2.27
2018-01-15T01:07:10.114Z,2.80
2018-01-15T01:09:40.962Z,2.27
2018-01-15T01:12:11.823Z,2.50
2018-01-15T01:14:42.672Z,2.63
2018-01-15T01:17:13.547Z,2.03
2018-01-15T01:19:44.395Z,2.77
2018-01-15T01:22:15.246Z,2.47
2018-01-15T01:24:46.160Z,2.30
2018-01-15T01:27:17.063Z,2.97
2018-01-15T01:29:47.903Z,2.30
2018-01-15T01:32:18.750Z,2.40
2018-01-15T01:34:49.599Z,2.27
2018-01-15T01:37:20.455Z,2.10
2018-01-15T01:39:51.314Z,2.90
2018-01-15T01:42:22.178Z,2.83
2018-01-15T01:44:53.009Z,2.83
2018-01-15T01:47:23.870Z,2.20
2018-01-15T01:49:54.710Z,2.30
2018-01-15T01:52:25.583Z,1.93
2018-01-15T01:54:56.427Z,2.47
2018-01-15T01:57:27.273Z,2.47
2018-01-15T01:59:58.109Z,2.50
2018-01-15T02:02:29.029Z,2.20
2018-01-15T02:04:59.870Z,2.83
2018-01-15T02:07:30.787Z,2.17
2018-01-15T02:10:01.637Z,2.60
2018-01-15T02:12:32.487Z,3.20
2018-01-15T02:15:03.367Z,2.57
2018-01-15T02:17:34.190Z,2.00
2018-01-15T02:20:05.047Z,2.23
2018-01-15T02:22:35.902Z,2.60
2018-01-15T02:25:06.736Z,2.47
2018-01-15T02:27:37.590Z,2.50
2018-01-15T02:30:08.427Z,2.33
2018-01-15T02:32:39.323Z,2.27
2018-01-15T02:35:10.162Z,2.60
2018-01-15T02:37:41.014Z,2.70
2018-01-15T02:40:11.862Z,2.43
2018-01-15T02:42:42.721Z,2.53
2018-01-15T02:45:13.562Z,2.30
2018-01-15T02:47:44.402Z,3.00
2018-01-15T02:50:15.226Z,2.80
2018-01-15T02:52:46.076Z,2.80
2018-01-15T02:55:16.930Z,2.87
2018-01-15T02:57:47.782Z,2.60
2018-01-15T03:00:18.614Z,2.70
2018-01-15T03:02:49.455Z,2.47
2018-01-15T03:05:20.299Z,2.20
2018-01-15T03:07:51.174Z,2.80
2018-01-15T03:10:22.040Z,2.63
2018-01-15T03:12:52.873Z,2.13
2018-01-15T03:15:23.723Z,2.80
2018-01-15T03:17:54.556Z,2.50
2018-01-15T03:20:25.405Z,2.47
2018-01-15T03:22:56.254Z,2.50
2018-01-15T03:25:27.111Z,2.50
2018-01-15T03:27:57.941Z,2.70
2018-01-15T03:30:28.779Z,2.40
2018-01-15T03:32:59.614Z,2.33
2018-01-15T03:35:30.467Z,2.70
2018-01-15T03:38:01.295Z,2.43
2018-01-15T03:40:32.163Z,2.00
2018-01-15T03:43:03.010Z,3.20
2018-01-15T03:45:33.854Z,3.33
2018-01-15T03:48:04.698Z,2.57
2018-01-15T03:50:35.544Z,2.60
2018-01-15T03:53:06.375Z,2.40
2018-01-15T03:55:37.232Z,2.83
2018-01-15T03:58:08.082Z,2.97
2018-01-15T04:00:38.923Z,2.80
2018-01-15T04:03:09.774Z,2.33
2018-01-15T04:05:40.630Z,2.80
2018-01-15T04:08:11.466Z,1.90
2018-01-15T04:10:42.303Z,2.37
2018-01-15T04:13:13.160Z,3.03
2018-01-15T04:15:43.989Z,2.27
2018-01-15T04:18:14.845Z,2.57
2018-01-15T04:20:45.673Z,2.13
2018-01-15T04:23:16.506Z,2.77
2018-01-15T04:25:47.388Z,2.10
2018-01-15T04:28:18.252Z,2.50
2018-01-15T04:30:49.090Z,2.77
2018-01-15T04:33:19.966Z,2.30
2018-01-15T04:35:50.808Z,2.10
2018-01-15T04:38:21.646Z,2.33
2018-01-15T04:40:52.514Z,2.60
2018-01-15T04:43:23.343Z,2.70
2018-01-15T04:45:54.202Z,2.37
2018-01-15T04:48:25.054Z,2.03
2018-01-15T04:50:55.926Z,2.20
2018-01-15T04:53:26.892Z,2.50
2018-01-15T04:55:57.738Z,2.40
2018-01-15T04:58:28.586Z,2.00
2018-01-15T05:00:59.435Z,2.27
2018-01-15T05:03:30.278Z,2.63
2018-01-15T05:06:01.135Z,2.27
2018-01-15T05:08:31.986Z,2.37
2018-01-15T05:11:02.841Z,2.23
2018-01-15T05:13:33.682Z,2.67
2018-01-15T05:16:04.531Z,2.63
2018-01-15T05:18:35.406Z,2.30
2018-01-15T05:21:06.233Z,2.70
2018-01-15T05:23:37.086Z,2.60
2018-01-15T05:26:07.933Z,2.40
2018-01-15T05:28:38.813Z,2.70
2018-01-15T05:31:09.648Z,2.63
2018-01-15T05:33:40.494Z,2.70
2018-01-15T05:36:11.343Z,2.57
2018-01-15T05:38:42.195Z,2.33
2018-01-15T05:41:13.059Z,2.40
2018-01-15T05:43:43.923Z,2.73
2018-01-15T05:46:14.763Z,2.27
2018-01-15T05:48:45.625Z,2.30
2018-01-15T05:51:16.479Z,2.10
2018-01-15T05:53:47.335Z,2.30
2018-01-15T05:56:18.192Z,2.73
2018-01-15T05:58:49.042Z,2.50
2018-01-15T06:01:20.001Z,2.00
2018-01-15T06:03:50.827Z,2.00
2018-01-15T06:06:21.683Z,2.57
2018-01-15T06:08:52.511Z,2.07
2018-01-15T06:11:23.348Z,2.67
2018-01-15T06:13:54.174Z,2.30
2018-01-15T06:16:25.029Z,2.70
2018-01-15T06:18:55.870Z,2.30
2018-01-15T06:21:26.718Z,2.20
2018-01-15T06:23:57.560Z,2.10
2018-01-15T06:26:28.427Z,2.10
2018-01-15T06:28:59.258Z,2.20
2018-01-15T06:31:30.096Z,2.17
2018-01-15T06:34:00.950Z,2.57
2018-01-15T06:36:31.778Z,2.30
2018-01-15T06:39:02.648Z,2.03
2018-01-15T06:41:33.483Z,2.40
2018-01-15T06:44:04.350Z,2.23
2018-01-15T06:46:35.197Z,2.27
2018-01-15T06:49:06.064Z,2.30
2018-01-15T06:51:36.894Z,2.17
2018-01-15T06:54:07.755Z,2.17
2018-01-15T06:56:38.614Z,1.90
2018-01-15T06:59:09.466Z,2.10
2018-01-15T07:01:40.315Z,2.10
2018-01-15T07:04:11.182Z,1.67
2018-01-15T07:06:42.015Z,2.00
2018-01-15T07:09:12.864Z,2.23
2018-01-15T07:11:43.715Z,2.20
2018-01-15T07:14:14.580Z,2.33
2018-01-15T07:16:45.430Z,2.10
2018-01-15T07:19:16.283Z,1.83
2018-01-15T07:21:47.118Z,1.90
2018-01-15T07:24:17.973Z,2.20
2018-01-15T07:26:48.897Z,1.83
2018-01-15T07:29:19.719Z,1.80
2018-01-15T07:31:50.550Z,1.67
2018-01-15T07:34:21.394Z,2.50
2018-01-15T07:36:52.241Z,1.90
2018-01-15T07:39:23.080Z,1.90
2018-01-15T07:41:53.945Z,1.93
2018-01-15T07:44:24.801Z,1.70
2018-01-15T07:46:55.639Z,1.53
2018-01-15T07:49:26.487Z,1.93
2018-01-15T07:51:57.334Z,2.00
2018-01-15T07:54:28.202Z,2.07
2018-01-15T07:56:59.046Z,2.53
2018-01-15T07:59:29.878Z,2.47
2018-01-15T08:02:00.721Z,3.10
2018-01-15T08:04:31.574Z,2.20
2018-01-15T08:07:02.464Z,2.30
2018-01-15T08:09:33.298Z,2.27
2018-01-15T08:12:04.145Z,2.10
2018-01-15T08:14:34.977Z,2.50
2018-01-15T08:17:05.843Z,2.07
2018-01-15T08:19:36.678Z,2.27
2018-01-15T08:22:07.530Z,2.90
2018-01-15T08:24:38.367Z,2.30
2018-01-15T08:27:09.210Z,2.50
2018-01-15T08:29:40.070Z,2.50
2018-01-15T08:32:10.914Z,1.80
2018-01-15T08:34:41.782Z,2.60
2018-01-15T08:37:12.642Z,2.80
2018-01-15T08:39:43.482Z,4.70
2018-01-15T08:42:14.334Z,4.23
2018-01-15T08:44:45.203Z,4.17
2018-01-15T08:47:16.031Z,5.40
2018-01-15T08:49:46.888Z,5.07
2018-01-15T08:52:17.730Z,5.90
2018-01-15T08:54:48.577Z,6.07
2018-01-15T08:57:19.433Z,4.67
2018-01-15T08:59:50.359Z,5.70
2018-01-15T09:02:21.296Z,5.63
2018-01-15T09:04:52.240Z,4.80
2018-01-15T09:07:23.103Z,5.80
2018-01-15T09:09:53.944Z,5.23
2018-01-15T09:12:24.790Z,4.77
2018-01-15T09:14:55.627Z,6.80
2018-01-15T09:17:26.496Z,6.17
2018-01-15T09:19:57.346Z,7.37
2018-01-15T09:22:28.192Z,9.67
2018-01-15T09:24:59.025Z,8.20
2018-01-15T09:27:29.951Z,7.30
2018-01-15T09:30:00.766Z,7.93
2018-01-15T09:32:31.618Z,7.87
2018-01-15T09:35:02.461Z,8.10
2018-01-15T09:37:33.845Z,6.80
2018-01-15T09:40:04.677Z,7.32
2018-01-15T09:42:35.534Z,7.00
2018-01-15T09:45:06.451Z,5.60
2018-01-15T09:47:37.292Z,10.67
2018-01-15T09:50:08.147Z,12.77
2018-01-15T09:52:39.004Z,16.10
2018-01-15T09:55:09.871Z,13.40
2018-01-15T09:57:40.703Z,14.10
2018-01-15T10:00:11.562Z,11.20
2018-01-15T10:02:42.390Z,11.90
2018-01-15T10:05:13.283Z,9.17
2018-01-15T10:07:44.106Z,9.17
2018-01-15T10:10:14.946Z,8.60
2018-01-15T10:12:45.782Z,7.57
2018-01-15T10:15:16.638Z,8.07
2018-01-15T10:17:47.478Z,6.77
2018-01-15T10:20:18.477Z,6.37
2018-01-15T10:22:49.319Z,6.05
2018-01-15T10:25:20.162Z,6.43
2018-01-15T10:27:51.030Z,5.20
2018-01-15T10:30:21.851Z,6.07
2018-01-15T10:32:52.717Z,5.77
2018-01-15T10:35:23.558Z,5.70
2018-01-15T10:37:54.413Z,5.50
2018-01-15T10:40:25.241Z,4.50
2018-01-15T10:42:56.218Z,4.83
2018-01-15T10:45:27.040Z,4.43
2018-01-15T10:47:57.872Z,4.27
2018-01-15T10:50:28.718Z,4.20
2018-01-15T10:52:59.594Z,3.67
2018-01-15T10:55:30.470Z,3.97
2018-01-15T10:58:02.146Z,3.40
2018-01-15T11:00:33.005Z,3.23
2018-01-15T11:03:03.834Z,3.60
2018-01-15T11:05:34.690Z,3.30
2018-01-15T11:08:05.619Z,3.50
2018-01-15T11:10:36.454Z,3.53
2018-01-15T11:13:07.305Z,3.53
2018-01-15T11:15:38.155Z,4.30
2018-01-15T11:18:09.011Z,3.40
2018-01-15T11:20:39.874Z,3.87
2018-01-15T11:23:10.710Z,2.63
2018-01-15T11:25:41.591Z,2.50
2018-01-15T11:28:12.447Z,3.63
2018-01-15T11:30:43.311Z,3.53
2018-01-15T11:33:14.136Z,3.63
2018-01-15T11:35:44.981Z,3.50
2018-01-15T11:38:15.818Z,3.10
2018-01-15T11:40:46.670Z,3.00
2018-01-15T11:43:17.522Z,3.00
2018-01-15T11:45:48.354Z,2.90
2018-01-15T11:48:19.204Z,2.60
2018-01-15T11:50:50.036Z,3.40
2018-01-15T11:53:20.894Z,2.67
2018-01-15T11:55:51.750Z,2.87
2018-01-15T11:58:22.600Z,2.90
2018-01-15T12:00:53.434Z,3.00
2018-01-15T12:03:24.292Z,2.70
2018-01-15T12:05:55.155Z,2.90
2018-01-15T12:08:26.003Z,3.00
2018-01-15T12:10:56.850Z,2.17
2018-01-15T12:13:27.699Z,3.33
2018-01-15T12:15:58.551Z,2.90
2018-01-15T12:18:29.390Z,3.17
2018-01-15T12:21:00.242Z,2.77
2018-01-15T12:23:31.081Z,2.47
2018-01-15T12:26:02.462Z,2.33
2018-01-15T12:28:33.287Z,2.58
2018-01-15T12:31:04.136Z,2.70
2018-01-15T12:33:34.967Z,1.97
2018-01-15T12:36:05.819Z,2.50
2018-01-15T12:38:36.675Z,2.80
2018-01-15T12:41:07.517Z,2.53
2018-01-15T12:43:38.372Z,3.50
2018-01-15T12:46:09.222Z,3.47
2018-01-15T12:48:40.048Z,3.40
2018-01-15T12:51:10.918Z,3.13
2018-01-15T12:53:41.754Z,3.37
2018-01-15T12:56:12.631Z,3.20
2018-01-15T12:58:43.454Z,3.50
2018-01-15T13:01:14.283Z,3.90
2018-01-15T13:03:45.114Z,4.17
2018-01-15T13:06:16.265Z,4.17
2018-01-15T13:08:47.135Z,4.45
2018-01-15T13:11:17.983Z,4.13
2018-01-15T13:13:48.818Z,3.47
2018-01-15T13:16:19.665Z,4.30
2018-01-15T13:18:50.508Z,3.97
2018-01-15T13:21:21.382Z,3.97
2018-01-15T13:23:52.252Z,3.20
2018-01-15T13:26:23.092Z,3.23
2018-01-15T13:28:53.950Z,3.43
2018-01-15T13:31:24.820Z,3.20
2018-01-15T13:33:55.673Z,3.63
2018-01-15T13:36:26.527Z,3.13
2018-01-15T13:38:57.372Z,2.90
2018-01-15T13:41:28.218Z,3.20
2018-01-15T13:43:59.076Z,2.90
2018-01-15T13:46:29.902Z,3.03
2018-01-15T13:49:00.775Z,5.27
2018-01-15T13:51:31.631Z,5.33
2018-01-15T13:54:02.471Z,6.73
2018-01-15T13:56:33.303Z,6.27
2018-01-15T13:59:04.294Z,5.77
2018-01-15T14:01:35.115Z,5.28
2018-01-15T14:04:05.960Z,4.90
2018-01-15T14:06:36.801Z,5.10
2018-01-15T14:09:07.663Z,3.87
2018-01-15T14:11:38.514Z,5.40
2018-01-15T14:14:09.374Z,4.00
2018-01-15T14:16:40.215Z,4.00
2018-01-15T14:19:11.049Z,3.93
2018-01-15T14:21:41.894Z,3.47
2018-01-15T14:24:12.727Z,3.77
2018-01-15T14:26:43.578Z,3.17
2018-01-15T14:29:14.423Z,2.93
2018-01-15T14:31:45.286Z,3.73
2018-01-15T14:34:16.114Z,3.00
2018-01-15T14:36:46.986Z,3.10
2018-01-15T14:39:17.826Z,2.83
2018-01-15T14:41:48.682Z,2.77
2018-01-15T14:44:19.514Z,2.80
2018-01-15T14:46:50.377Z,2.70
2018-01-15T14:49:21.203Z,2.70
2018-01-15T14:51:52.056Z,2.53
2018-01-15T14:54:22.917Z,3.00
2018-01-15T14:56:53.760Z,2.87
2018-01-15T14:59:24.624Z,2.60
2018-01-15T15:01:55.462Z,2.70
2018-01-15T15:04:26.302Z,1.80
2018-01-15T15:06:57.123Z,3.10
2018-01-15T15:09:27.967Z,1.90
2018-01-15T15:11:58.804Z,1.90
2018-01-15T15:14:29.794Z,2.53
2018-01-15T15:17:00.569Z,2.10
2018-01-15T15:19:31.400Z,1.90
2018-01-15T15:22:02.230Z,2.30
2018-01-15T15:24:33.086Z,2.13
2018-01-15T15:27:03.943Z,2.07
2018-01-15T15:29:34.785Z,2.10
2018-01-15T15:32:05.655Z,1.73
2018-01-15T15:34:36.498Z,1.80
2018-01-15T15:37:07.356Z,1.80
2018-01-15T15:39:38.213Z,1.50
2018-01-15T15:42:09.038Z,1.60
2018-01-15T15:44:39.893Z,1.70
2018-01-15T15:47:10.738Z,2.13
2018-01-15T15:49:41.597Z,1.80
2018-01-15T15:52:12.446Z,1.60
2018-01-15T15:54:43.286Z,1.70
2018-01-15T15:57:14.145Z,1.70
2018-01-15T15:59:44.982Z,1.70
2018-01-15T16:02:15.851Z,1.03
2018-01-15T16:04:46.693Z,1.60
2018-01-15T16:07:17.554Z,1.33
2018-01-15T16:09:48.405Z,1.33
2018-01-15T16:12:19.258Z,1.63
2018-01-15T16:14:50.114Z,1.30
2018-01-15T16:17:20.975Z,1.10
2018-01-15T16:19:51.812Z,1.37
2018-01-15T16:22:22.654Z,1.20
2018-01-15T16:24:53.505Z,1.60
2018-01-15T16:27:24.379Z,1.20
2018-01-15T16:29:55.221Z,1.40
2018-01-15T16:32:26.085Z,1.50
2018-01-15T16:34:56.940Z,1.20
2018-01-15T16:37:27.782Z,1.10
2018-01-15T16:39:58.656Z,1.30
2018-01-15T16:42:29.495Z,1.30
2018-01-15T16:45:00.378Z,1.47
2018-01-15T16:47:31.218Z,1.60
2018-01-15T16:50:02.095Z,1.83
2018-01-15T16:52:32.952Z,1.20
2018-01-15T16:55:03.774Z,1.30
2018-01-15T16:57:34.631Z,1.40
2018-01-15T17:00:05.494Z,1.17
2018-01-15T17:02:36.361Z,1.10
2018-01-15T17:05:07.223Z,0.97
2018-01-15T17:07:38.095Z,1.17
2018-01-15T17:10:08.922Z,1.10
2018-01-15T17:12:39.778Z,1.20
2018-01-15T17:15:10.631Z,1.13
2018-01-15T17:17:41.500Z,0.90
2018-01-15T17:20:12.334Z,0.90
2018-01-15T17:22:43.214Z,1.13
2018-01-15T17:25:14.063Z,1.10
2018-01-15T17:27:44.940Z,0.90
2018-01-15T17:30:15.806Z,0.90
2018-01-15T17:32:46.675Z,1.10
2018-01-15T17:35:17.554Z,0.90
2018-01-15T17:37:48.444Z,1.03
2018-01-15T17:40:19.263Z,1.23
2018-01-15T17:42:50.102Z,0.80
2018-01-15T17:45:20.963Z,1.20
2018-01-15T17:47:51.813Z,1.37
2018-01-15T17:50:22.731Z,1.27
2018-01-15T17:52:53.586Z,1.13
2018-01-15T17:55:24.420Z,1.00
2018-01-15T17:57:55.284Z,1.00
2018-01-15T18:00:26.136Z,1.00
2018-01-15T18:02:56.981Z,1.07
2018-01-15T18:05:27.849Z,1.00
2018-01-15T18:07:58.698Z,0.83
2018-01-15T18:10:29.578Z,1.00
2018-01-15T18:13:00.423Z,0.87
2018-01-15T18:15:31.305Z,0.80
2018-01-15T18:18:02.126Z,1.10
2018-01-15T18:20:32.990Z,0.90
2018-01-15T18:23:03.812Z,0.90
2018-01-15T18:25:34.780Z,1.00
2018-01-15T18:28:05.594Z,1.00
2018-01-15T18:30:36.416Z,0.93
2018-01-15T18:33:07.239Z,0.97
2018-01-15T18:35:38.075Z,0.73
2018-01-15T18:38:08.939Z,0.80
2018-01-15T18:40:39.793Z,0.90
2018-01-15T18:43:10.655Z,0.80
2018-01-15T18:45:41.486Z,1.03
2018-01-15T18:48:12.343Z,1.10
2018-01-15T18:50:43.193Z,1.10
2018-01-15T18:53:14.069Z,1.00
2018-01-15T18:55:44.910Z,0.90
2018-01-15T18:58:15.791Z,0.93
2018-01-15T19:00:46.626Z,1.00
2018-01-15T19:03:17.490Z,0.80
2018-01-15T19:05:48.366Z,0.87
2018-01-15T19:08:19.197Z,1.00
2018-01-15T19:10:50.086Z,0.80
2018-01-15T19:13:20.953Z,0.80
2018-01-15T19:15:51.847Z,0.80
2018-01-15T19:18:22.676Z,0.70
2018-01-15T19:20:53.564Z,0.80
2018-01-15T19:23:24.416Z,0.97
2018-01-15T19:25:55.295Z,1.20
2018-01-15T19:28:26.169Z,1.27
2018-01-15T19:30:57.021Z,1.00
2018-01-15T19:40:18.035Z,0.80
2018-01-15T19:42:48.922Z,1.00
2018-01-15T19:45:19.763Z,1.10
2018-01-15T19:47:50.639Z,1.00
2018-01-15T19:50:21.559Z,1.10
2018-01-15T19:52:52.429Z,1.40
2018-01-15T19:55:23.274Z,0.90
2018-01-15T19:57:54.172Z,1.03
2018-01-15T20:00:25.010Z,1.30
2018-01-15T20:02:55.888Z,2.00
2018-01-15T20:05:26.805Z,3.07
2018-01-15T20:07:57.674Z,3.30
2018-01-15T20:10:28.554Z,5.33
2018-01-15T20:12:59.389Z,4.80
2018-01-15T20:15:30.244Z,5.53
2018-01-15T20:18:01.091Z,4.50
2018-01-15T20:20:31.982Z,4.63
2018-01-15T20:23:02.816Z,4.27
2018-01-15T20:25:33.663Z,3.77
2018-01-15T20:28:04.523Z,4.17
2018-01-15T20:30:35.380Z,4.33
2018-01-15T20:33:06.212Z,3.90
2018-01-15T20:35:37.095Z,3.80
2018-01-15T20:38:07.938Z,3.30
2018-01-15T20:40:38.789Z,3.70
2018-01-15T20:43:09.652Z,3.20
2018-01-15T20:45:40.496Z,3.03
2018-01-15T20:48:11.329Z,4.00
2018-01-15T20:50:42.211Z,3.80
2018-01-15T20:53:13.063Z,4.53
2018-01-15T20:55:43.947Z,5.47
2018-01-15T20:58:14.800Z,4.53
2018-01-15T21:00:45.667Z,4.97
2018-01-15T21:03:16.548Z,6.00
2018-01-15T21:05:47.385Z,4.67
2018-01-15T21:08:18.237Z,4.90
2018-01-15T21:10:49.117Z,4.93
2018-01-15T21:13:19.993Z,3.27
2018-01-15T21:15:50.840Z,4.10
2018-01-15T21:18:21.688Z,4.27
2018-01-15T21:20:52.535Z,4.47
2018-01-15T21:23:23.403Z,3.70
2018-01-15T21:25:54.244Z,3.70
2018-01-15T21:28:25.106Z,3.63
2018-01-15T21:30:55.961Z,3.00
2018-01-15T21:33:26.831Z,3.20
2018-01-15T21:35:57.704Z,3.90
2018-01-15T21:38:28.575Z,4.50
2018-01-15T21:40:59.416Z,3.80
2018-01-15T21:43:30.341Z,4.30
2018-01-15T21:46:01.201Z,3.63
2018-01-15T21:48:32.080Z,3.73
2018-01-15T21:51:02.942Z,4.60
2018-01-15T21:53:33.812Z,4.40
2018-01-15T21:56:04.668Z,4.20
2018-01-15T21:58:35.530Z,3.70
2018-01-15T22:01:06.402Z,2.90
2018-01-15T22:03:37.259Z,3.70
2018-01-15T22:06:08.119Z,3.40
2018-01-15T22:08:38.971Z,3.50
2018-01-15T22:11:09.852Z,3.50
2018-01-15T22:13:40.694Z,3.60
2018-01-15T22:16:11.637Z,3.50
2018-01-15T22:18:42.438Z,2.90
2018-01-15T22:21:13.399Z,3.10
2018-01-15T22:23:44.224Z,3.03
2018-01-15T22:26:15.067Z,2.90
2018-01-15T22:28:45.927Z,3.27
2018-01-15T22:31:18.786Z,2.67
2018-01-15T22:33:49.619Z,2.45
2018-01-15T22:36:20.526Z,2.80
2018-01-15T22:38:51.371Z,2.80
2018-01-15T22:41:22.216Z,2.97
2018-01-15T22:43:53.762Z,2.80
2018-01-15T22:46:24.693Z,2.87
2018-01-15T22:48:55.568Z,2.77
2018-01-15T22:51:26.455Z,3.53
2018-01-15T22:53:57.293Z,2.80
2018-01-15T22:56:28.199Z,2.50
2018-01-15T22:58:59.036Z,2.87
2018-01-15T23:01:29.906Z,2.63
2018-01-15T23:04:00.771Z,2.17
2018-01-15T23:06:31.656Z,2.50
2018-01-15T23:09:02.500Z,3.00
2018-01-15T23:11:33.347Z,2.70
2018-01-15T23:14:04.176Z,2.63
2018-01-15T23:16:35.023Z,2.43
2018-01-15T23:19:05.877Z,2.13
2018-01-15T23:21:36.720Z,2.23
2018-01-15T23:24:07.567Z,2.53
2018-01-15T23:26:38.427Z,2.20
2018-01-15T23:29:09.294Z,2.63
2018-01-15T23:31:40.135Z,1.90
2018-01-15T23:34:11.003Z,1.80
2018-01-15T23:36:41.865Z,1.70
2018-01-15T23:39:12.756Z,1.50
2018-01-15T23:41:43.592Z,1.53
2018-01-15T23:44:14.443Z,2.07
2018-01-15T23:46:45.318Z,2.00
2018-01-15T23:49:16.157Z,1.90
2018-01-15T23:51:47.007Z,2.00
2018-01-15T23:54:17.869Z,1.67
2018-01-15T23:56:48.734Z,1.83
2018-01-15T23:59:19.573Z,1.63
